Time;durP1;ratioP1;P1;durP2;ratioP2;P2;SDS_P1;SDS_P2;PMS_P1;PMS_P2;Temp;Humidity;BMP_temperature;BMP_pressure;BME280_temperature;BME280_humidity;BME280_pressure;Samples;Min_cycle;Max_cycle;Signal;HPM_P1;HPM_P2
2022/10/17 00:01:01;;;;;;;5.63;4.20;;;19.00;99.90;;;;;;5115128;28;20024;-85
2022/10/17 00:03:26;;;;;;;5.03;4.32;;;19.00;99.90;;;;;;5096543;28;20552;-84
2022/10/17 00:05:52;;;;;;;7.30;4.13;;;19.00;99.90;;;;;;5114699;28;20055;-84
2022/10/17 00:08:18;;;;;;;7.05;4.20;;;18.90;99.90;;;;;;5114943;28;20136;-84
2022/10/17 00:10:44;;;;;;;4.40;4.00;;;18.90;99.90;;;;;;5114886;28;20044;-85
2022/10/17 00:13:11;;;;;;;6.15;4.50;;;18.90;99.90;;;;;;5114908;28;20028;-85
2022/10/17 00:15:37;;;;;;;7.18;4.55;;;18.90;99.90;;;;;;5115146;28;20050;-84
2022/10/17 00:18:03;;;;;;;4.82;4.28;;;18.90;99.90;;;;;;5114817;28;20035;-85
2022/10/17 00:20:31;;;;;;;6.35;4.45;;;18.90;99.90;;;;;;5114423;28;20023;-84
2022/10/17 00:22:57;;;;;;;7.68;4.22;;;18.90;99.90;;;;;;5114697;28;20031;-84
2022/10/17 00:25:23;;;;;;;5.10;4.25;;;18.90;99.90;;;;;;5114565;28;20034;-85
2022/10/17 00:27:48;;;;;;;7.30;4.38;;;18.80;99.90;;;;;;5114412;28;20028;-84
2022/10/17 00:30:15;;;;;;;6.05;4.10;;;18.90;99.90;;;;;;5114517;28;20024;-85
2022/10/17 00:32:41;;;;;;;6.60;4.28;;;18.90;99.90;;;;;;5114230;28;20070;-85
2022/10/17 00:35:07;;;;;;;7.78;3.92;;;18.90;99.90;;;;;;5114066;28;20051;-84
2022/10/17 00:37:34;;;;;;;8.07;4.22;;;18.90;99.90;;;;;;5114956;28;20555;-84
2022/10/17 00:39:59;;;;;;;4.93;4.32;;;18.90;99.90;;;;;;5114123;28;20463;-84
2022/10/17 00:42:26;;;;;;;8.82;4.40;;;18.90;99.90;;;;;;5114462;28;20027;-84
2022/10/17 00:44:59;;;;;;;5.30;4.10;;;18.90;99.90;;;;;;5114406;28;20043;-85
2022/10/17 00:47:25;;;;;;;8.95;3.78;;;18.90;99.90;;;;;;5114254;28;20065;-85
2022/10/17 00:49:51;;;;;;;4.93;3.75;;;18.80;99.90;;;;;;5113885;28;20477;-85
2022/10/17 00:52:22;;;;;;;4.90;4.10;;;18.90;99.90;;;;;;5114127;28;20506;-84
2022/10/17 00:54:56;;;;;;;4.50;3.17;;;18.90;99.90;;;;;;5114493;28;20098;-85
2022/10/17 00:57:22;;;;;;;5.60;3.78;;;18.90;99.90;;;;;;5114010;28;20031;-85
2022/10/17 00:59:51;;;;;;;7.07;4.22;;;18.90;99.90;;;;;;5114113;28;20586;-85
2022/10/17 01:02:20;;;;;;;6.65;4.00;;;18.80;99.90;;;;;;5113929;28;20559;-85
2022/10/17 01:04:47;;;;;;;4.75;4.10;;;18.80;99.90;;;;;;5113792;28;20031;-84
2022/10/17 01:07:13;;;;;;;5.40;4.13;;;19.00;99.90;;;;;;5095649;28;20023;-84
2022/10/17 01:09:40;;;;;;;4.90;4.40;;;18.70;99.90;;;;;;5113663;28;20077;-85
2022/10/17 01:12:23;;;;;;;4.70;3.55;;;18.70;99.90;;;;;;5113423;28;20079;-83
2022/10/17 01:15:03;;;;;;;6.10;4.22;;;18.70;99.90;;;;;;5113663;28;20038;-84
2022/10/17 01:17:42;;;;;;;5.32;3.88;;;18.70;99.90;;;;;;5113227;28;20116;-84
2022/10/17 01:20:26;;;;;;;4.60;4.20;;;18.70;99.90;;;;;;5113597;28;20483;-85
2022/10/17 01:23:06;;;;;;;4.82;4.18;;;18.70;99.90;;;;;;5113667;28;20034;-84
2022/10/17 01:26:00;;;;;;;6.63;3.83;;;18.70;99.90;;;;;;5113437;28;20555;-85
2022/10/17 01:28:49;;;;;;;8.77;4.13;;;18.70;99.90;;;;;;5091607;28;20036;-84
2022/10/17 01:31:18;;;;;;;5.35;4.10;;;18.60;99.90;;;;;;5112272;28;20071;-85
2022/10/17 01:34:06;;;;;;;4.85;4.25;;;18.60;99.90;;;;;;5113300;28;20038;-85
2022/10/17 01:36:37;;;;;;;6.13;4.03;;;18.60;99.90;;;;;;5113388;28;20031;-84
2022/10/17 01:39:14;;;;;;;5.88;4.30;;;18.60;99.90;;;;;;5113231;28;20031;-85
2022/10/17 01:42:18;;;;;;;5.57;4.20;;;18.60;99.90;;;;;;5113131;28;20560;-84
2022/10/17 01:45:03;;;;;;;4.68;4.28;;;18.60;99.90;;;;;;5099361;28;20486;-85
2022/10/17 01:47:31;;;;;;;7.68;4.40;;;18.60;99.90;;;;;;5112723;28;20784;-85
2022/10/17 01:50:35;;;;;;;4.97;4.03;;;18.70;99.90;;;;;;5113036;28;20057;-84
2022/10/17 01:53:07;;;;;;;4.68;4.20;;;18.60;99.90;;;;;;5107456;28;20046;-85
2022/10/17 01:55:38;;;;;;;7.38;4.55;;;18.60;99.90;;;;;;5113228;28;20031;-84
2022/10/17 01:58:20;;;;;;;6.60;4.30;;;19.00;99.90;;;;;;5112910;28;20498;-84
2022/10/17 02:00:47;;;;;;;6.10;4.50;;;18.50;99.90;;;;;;5112564;28;20353;-84
2022/10/17 02:03:17;;;;;;;4.70;4.18;;;18.60;99.90;;;;;;5112540;28;20043;-84
2022/10/17 02:05:44;;;;;;;6.20;4.43;;;18.50;99.90;;;;;;5112729;28;20368;-85
2022/10/17 02:08:11;;;;;;;5.57;4.25;;;18.50;99.90;;;;;;5112731;28;20031;-84
2022/10/17 02:10:52;;;;;;;5.90;4.63;;;18.40;99.90;;;;;;5112806;28;20096;-84
2022/10/17 02:13:55;;;;;;;5.15;4.38;;;18.40;99.90;;;;;;5112438;28;20035;-85
2022/10/17 02:16:55;;;;;;;4.53;4.03;;;18.50;99.90;;;;;;5009723;28;20076;-85
2022/10/17 02:19:37;;;;;;;6.05;4.40;;;18.40;99.90;;;;;;5010215;28;20030;-84
2022/10/17 02:22:10;;;;;;;5.05;4.13;;;18.40;99.90;;;;;;5006030;28;20117;-84
2022/10/17 02:24:54;;;;;;;4.80;4.40;;;18.40;99.90;;;;;;5010511;28;20378;-85
2022/10/17 02:27:50;;;;;;;5.25;4.43;;;18.30;99.90;;;;;;5010506;28;20034;-83
2022/10/17 02:30:43;;;;;;;5.05;4.50;;;18.50;99.90;;;;;;5009685;28;20033;-85
2022/10/17 02:33:15;;;;;;;8.27;4.38;;;18.40;99.90;;;;;;4990280;28;20072;-85
2022/10/17 02:35:46;;;;;;;6.22;4.10;;;18.40;99.90;;;;;;4990249;28;20442;-85
2022/10/17 02:38:13;;;;;;;6.22;3.97;;;18.50;99.90;;;;;;4989993;28;20019;-84
2022/10/17 02:40:40;;;;;;;5.57;4.53;;;18.80;99.90;;;;;;4990362;28;20042;-84
2022/10/17 02:43:06;;;;;;;5.10;4.35;;;18.40;99.90;;;;;;4994007;28;20022;-84
2022/10/17 02:45:35;;;;;;;5.32;4.43;;;18.50;99.90;;;;;;4993980;28;20041;-85
2022/10/17 02:48:21;;;;;;;5.75;4.22;;;18.60;99.90;;;;;;4994350;28;20038;-84
2022/10/17 02:51:11;;;;;;;6.05;4.60;;;18.30;99.90;;;;;;4993975;28;20514;-84
2022/10/17 02:53:42;;;;;;;5.93;4.00;;;18.30;99.90;;;;;;5065623;28;20047;-85
2022/10/17 02:56:16;;;;;;;5.88;4.18;;;18.20;99.90;;;;;;5096094;28;20024;-85
2022/10/17 02:58:44;;;;;;;7.25;4.05;;;18.60;99.90;;;;;;5095606;28;20032;-85
2022/10/17 03:01:11;;;;;;;4.85;4.20;;;18.30;99.90;;;;;;5095854;28;20032;-85
2022/10/17 03:03:37;;;;;;;4.68;4.18;;;18.20;99.90;;;;;;5095714;28;20031;-85
2022/10/17 03:06:03;;;;;;;5.90;4.45;;;18.20;99.90;;;;;;5096054;28;20020;-84
2022/10/17 03:08:29;;;;;;;6.05;4.72;;;18.10;99.90;;;;;;5095827;28;20023;-85
2022/10/17 03:10:54;;;;;;;6.28;4.72;;;18.10;99.90;;;;;;5095413;28;20040;-85
2022/10/17 03:13:20;;;;;;;6.30;4.57;;;18.10;99.90;;;;;;5095220;28;20032;-85
2022/10/17 03:15:46;;;;;;;5.32;4.65;;;18.10;99.90;;;;;;5095560;28;20031;-85
2022/10/17 03:18:11;;;;;;;8.98;3.92;;;18.10;99.90;;;;;;5095686;28;20024;-84
2022/10/17 03:20:37;;;;;;;5.18;4.03;;;18.10;99.90;;;;;;5095287;28;20419;-84
2022/10/17 03:23:03;;;;;;;6.28;4.07;;;18.10;99.90;;;;;;5095599;28;20044;-85
2022/10/17 03:25:28;;;;;;;7.72;4.47;;;18.10;99.90;;;;;;5095469;28;20107;-84
2022/10/17 03:27:58;;;;;;;6.07;4.20;;;18.10;99.90;;;;;;5095428;28;20018;-85
2022/10/17 03:30:24;;;;;;;4.28;3.88;;;18.20;99.90;;;;;;5094895;28;20032;-85
2022/10/17 03:32:49;;;;;;;6.63;4.40;;;18.70;99.90;;;;;;5115375;28;20095;-84
2022/10/17 03:35:15;;;;;;;7.20;4.45;;;18.10;99.90;;;;;;5115530;28;20099;-84
2022/10/17 03:37:41;;;;;;;5.95;4.32;;;18.10;99.90;;;;;;5115569;28;20432;-85
2022/10/17 03:40:06;;;;;;;6.75;3.83;;;18.10;99.90;;;;;;5115558;28;20032;-85
2022/10/17 03:42:32;;;;;;;5.63;4.00;;;18.20;99.90;;;;;;5115454;28;20043;-85
2022/10/17 03:44:58;;;;;;;4.53;3.80;;;18.10;99.90;;;;;;5115340;28;20106;-85
2022/10/17 03:47:23;;;;;;;4.25;3.83;;;18.10;99.90;;;;;;5097086;28;20132;-85
2022/10/17 03:49:49;;;;;;;5.93;3.90;;;18.10;99.90;;;;;;5115652;28;20524;-85
2022/10/17 03:52:15;;;;;;;7.45;4.38;;;18.10;99.90;;;;;;5114613;28;20044;-84
2022/10/17 03:54:41;;;;;;;5.93;4.30;;;18.00;99.90;;;;;;5115597;28;20046;-85
2022/10/17 03:57:06;;;;;;;4.63;3.83;;;18.00;99.90;;;;;;5114732;28;20361;-85
2022/10/17 03:59:32;;;;;;;5.68;4.40;;;18.10;99.90;;;;;;5115287;28;20027;-85
2022/10/17 04:01:57;;;;;;;4.97;4.40;;;18.10;99.90;;;;;;5114984;28;20391;-85
2022/10/17 04:04:23;;;;;;;5.15;3.85;;;18.00;99.90;;;;;;5097577;28;20038;-84
2022/10/17 04:06:49;;;;;;;5.93;4.13;;;18.10;99.90;;;;;;5094724;28;20039;-85
2022/10/17 04:09:14;;;;;;;5.97;4.28;;;18.00;99.90;;;;;;5094588;28;20099;-85
2022/10/17 04:11:40;;;;;;;7.65;4.43;;;18.00;99.90;;;;;;5093780;28;20196;-84
2022/10/17 04:14:06;;;;;;;6.35;4.32;;;18.00;99.90;;;;;;5094527;28;20427;-85
2022/10/17 04:16:32;;;;;;;6.72;4.10;;;17.90;99.90;;;;;;5094350;28;20389;-84
2022/10/17 04:18:58;;;;;;;8.13;4.50;;;18.00;99.90;;;;;;5076484;28;20017;-85
2022/10/17 04:21:26;;;;;;;4.53;3.85;;;17.90;99.90;;;;;;5076109;28;20035;-85
2022/10/17 04:23:56;;;;;;;7.50;4.40;;;17.90;99.90;;;;;;5094256;28;20055;-85
2022/10/17 04:26:22;;;;;;;9.18;4.85;;;17.90;99.90;;;;;;5094320;28;20085;-85
2022/10/17 04:28:48;;;;;;;8.75;4.50;;;17.90;99.90;;;;;;5094230;28;20032;-84
2022/10/17 04:31:14;;;;;;;5.03;3.65;;;17.90;99.90;;;;;;5100386;28;20503;-85
2022/10/17 04:33:40;;;;;;;4.90;4.25;;;18.00;99.90;;;;;;5114680;28;20020;-84
2022/10/17 04:36:11;;;;;;;5.82;4.07;;;18.00;99.90;;;;;;5114702;28;20024;-85
2022/10/17 04:38:37;;;;;;;6.55;4.22;;;17.90;99.90;;;;;;5114396;28;20507;-85
2022/10/17 04:41:07;;;;;;;5.18;4.20;;;17.80;99.90;;;;;;5113856;28;20032;-85
2022/10/17 04:43:35;;;;;;;6.10;4.10;;;17.80;99.90;;;;;;5114239;28;20420;-85
2022/10/17 04:46:02;;;;;;;5.47;4.10;;;17.80;99.90;;;;;;5095836;28;20027;-84
2022/10/17 04:48:29;;;;;;;6.07;4.05;;;17.80;99.90;;;;;;5114052;28;20102;-85
2022/10/17 04:51:06;;;;;;;7.57;4.22;;;18.10;99.90;;;;;;5114489;28;20418;-85
2022/10/17 04:53:34;;;;;;;5.15;4.38;;;17.70;99.90;;;;;;5113970;28;20034;-84
2022/10/17 04:56:01;;;;;;;7.53;4.13;;;17.70;99.90;;;;;;5113636;28;20020;-85
2022/10/17 04:58:29;;;;;;;4.50;4.10;;;17.80;99.90;;;;;;5114105;28;20063;-85
2022/10/17 05:00:55;;;;;;;6.80;4.07;;;17.70;99.90;;;;;;5113954;28;20103;-85
2022/10/17 05:03:21;;;;;;;8.57;4.57;;;17.60;99.90;;;;;;5104815;28;20181;-85
2022/10/17 05:05:46;;;;;;;6.65;4.47;;;17.60;99.90;;;;;;5092577;28;20038;-85
2022/10/17 05:08:12;;;;;;;5.70;4.25;;;17.60;99.90;;;;;;5093309;28;20024;-85
2022/10/17 05:10:43;;;;;;;5.70;4.13;;;17.60;99.90;;;;;;5093111;28;20079;-84
2022/10/17 05:13:09;;;;;;;4.53;4.07;;;17.60;99.90;;;;;;5075043;28;20039;-85
2022/10/17 05:15:35;;;;;;;8.93;4.20;;;17.60;99.90;;;;;;5093393;28;20069;-85
2022/10/17 05:18:01;;;;;;;8.43;4.43;;;17.60;99.90;;;;;;5093433;28;20028;-85
2022/10/17 05:20:27;;;;;;;8.13;4.18;;;17.60;99.90;;;;;;5093046;28;20047;-84
2022/10/17 05:22:53;;;;;;;6.00;4.15;;;17.50;99.90;;;;;;5093168;28;20425;-84
2022/10/17 05:25:19;;;;;;;5.60;3.80;;;17.50;99.90;;;;;;5092702;28;20032;-85
2022/10/17 05:27:45;;;;;;;7.95;4.80;;;17.50;99.90;;;;;;5093073;28;20127;-85
2022/10/17 05:30:11;;;;;;;7.05;4.57;;;17.50;99.90;;;;;;5093267;28;20058;-85
2022/10/17 05:32:36;;;;;;;5.03;4.40;;;17.50;99.90;;;;;;5110648;28;20027;-85
2022/10/17 05:35:03;;;;;;;5.18;4.32;;;17.50;99.90;;;;;;5113170;28;20023;-84
2022/10/17 05:37:29;;;;;;;6.18;4.80;;;17.50;99.90;;;;;;5112990;28;20023;-85
2022/10/17 05:39:55;;;;;;;7.05;4.20;;;17.50;99.90;;;;;;5113175;28;20494;-85
2022/10/17 05:42:21;;;;;;;7.40;4.20;;;17.50;99.90;;;;;;5112868;28;20028;-85
2022/10/17 05:44:46;;;;;;;6.82;4.57;;;17.50;99.90;;;;;;5094848;28;20024;-85
2022/10/17 05:47:12;;;;;;;4.55;4.10;;;17.50;99.90;;;;;;5113034;28;20031;-85
2022/10/17 05:49:37;;;;;;;6.45;4.32;;;17.80;99.90;;;;;;5113013;28;20024;-84
2022/10/17 05:52:03;;;;;;;4.70;4.00;;;17.40;99.90;;;;;;5112909;28;20036;-85
2022/10/17 05:54:29;;;;;;;8.15;4.55;;;17.30;99.90;;;;;;5112462;28;20020;-85
2022/10/17 05:56:55;;;;;;;5.57;4.53;;;17.30;99.90;;;;;;5112984;28;20495;-85
2022/10/17 05:59:21;;;;;;;6.32;4.93;;;17.40;99.90;;;;;;5112710;28;20024;-85
2022/10/17 06:01:46;;;;;;;6.88;4.30;;;17.40;99.90;;;;;;5113134;28;20028;-85
2022/10/17 06:04:12;;;;;;;7.55;4.93;;;17.40;99.90;;;;;;5096643;28;20055;-85
2022/10/17 06:06:39;;;;;;;7.40;4.50;;;17.40;99.90;;;;;;5092012;28;20024;-85
2022/10/17 06:09:05;;;;;;;7.35;4.85;;;17.40;99.90;;;;;;5092637;28;20028;-85
2022/10/17 06:11:31;;;;;;;4.60;4.20;;;17.40;99.90;;;;;;5092176;28;20598;-85
2022/10/17 06:13:56;;;;;;;6.28;4.28;;;17.40;99.90;;;;;;5108635;28;20118;-86
2022/10/17 06:16:22;;;;;;;6.90;4.32;;;17.50;99.90;;;;;;5093510;28;20023;-83
2022/10/17 06:18:48;;;;;;;4.82;4.32;;;17.60;99.90;;;;;;5112958;28;20019;-82
2022/10/17 06:21:16;;;;;;;5.07;3.80;;;17.80;99.90;;;;;;5094050;28;20023;-84
2022/10/17 06:23:42;;;;;;;8.93;4.00;;;17.80;99.90;;;;;;5112892;28;20498;-84
2022/10/17 06:26:08;;;;;;;6.55;4.55;;;17.80;99.90;;;;;;5112598;28;20468;-84
2022/10/17 06:28:35;;;;;;;4.57;4.15;;;17.90;99.90;;;;;;5112248;28;20035;-83
2022/10/17 06:31:12;;;;;;;5.03;4.15;;;17.90;99.90;;;;;;5112090;28;20012;-77
2022/10/17 06:33:38;;;;;;;5.97;4.25;;;17.90;99.90;;;;;;5112081;28;20024;-79
2022/10/17 06:36:05;;;;;;;6.22;4.30;;;17.90;99.90;;;;;;5112629;28;20106;-81
2022/10/17 06:38:32;;;;;;;5.80;4.22;;;17.90;99.90;;;;;;5112030;28;20483;-81
2022/10/17 06:41:13;;;;;;;9.20;4.82;;;18.00;99.90;;;;;;5112533;28;20030;-82
2022/10/17 06:43:41;;;;;;;6.88;3.80;;;17.90;99.90;;;;;;5111410;28;20405;-79
2022/10/17 06:46:07;;;;;;;8.18;4.57;;;18.00;99.90;;;;;;5106370;28;20024;-79
2022/10/17 06:48:33;;;;;;;5.95;4.30;;;18.00;99.90;;;;;;5112692;28;20024;-79
2022/10/17 06:51:03;;;;;;;6.57;4.30;;;18.00;99.90;;;;;;5111343;28;20035;-80
2022/10/17 06:53:31;;;;;;;5.72;4.30;;;18.10;99.90;;;;;;5112253;28;20464;-80
2022/10/17 06:56:01;;;;;;;6.32;4.40;;;18.10;99.90;;;;;;5112187;28;20030;-80
2022/10/17 06:58:34;;;;;;;6.25;4.30;;;18.20;99.90;;;;;;5111720;28;20059;-80
2022/10/17 07:01:01;;;;;;;5.25;4.32;;;18.20;99.90;;;;;;5111648;28;20502;-82
2022/10/17 07:03:27;;;;;;;8.60;4.20;;;18.20;99.90;;;;;;5111934;28;20118;-80
2022/10/17 07:05:54;;;;;;;5.60;4.70;;;18.20;99.90;;;;;;5111214;28;20154;-82
2022/10/17 07:08:20;;;;;;;5.32;4.63;;;18.20;99.90;;;;;;5111883;28;20028;-82
2022/10/17 07:10:46;;;;;;;4.65;4.22;;;18.30;99.90;;;;;;5112051;28;20126;-81
2022/10/17 07:13:13;;;;;;;7.07;5.03;;;18.30;99.90;;;;;;5112264;28;20164;-82
2022/10/17 07:15:38;;;;;;;4.88;4.45;;;18.40;99.90;;;;;;5111596;28;20024;-81
2022/10/17 07:18:05;;;;;;;8.57;4.93;;;18.50;99.90;;;;;;5110707;28;20024;-83
2022/10/17 07:20:30;;;;;;;4.63;4.05;;;18.60;99.90;;;;;;5091622;28;20024;-80
2022/10/17 07:22:56;;;;;;;6.07;4.55;;;18.70;99.90;;;;;;5092261;28;20032;-79
2022/10/17 07:25:21;;;;;;;5.65;4.25;;;18.80;99.90;;;;;;5092381;28;20032;-79
2022/10/17 07:27:48;;;;;;;5.88;4.43;;;18.90;99.90;;;;;;5092744;28;20028;-80
2022/10/17 07:30:14;;;;;;;5.63;4.10;;;19.10;99.90;;;;;;5095341;28;20153;-80
2022/10/17 07:32:39;;;;;;;4.82;4.25;;;19.10;99.90;;;;;;5113789;28;20106;-80
2022/10/17 07:35:05;;;;;;;3.97;3.58;;;19.30;99.90;;;;;;5115414;28;20490;-79
2022/10/17 07:37:30;;;;;;;5.18;3.92;;;19.50;99.90;;;;;;5115759;28;20039;-80
2022/10/17 07:39:56;;;;;;;5.43;4.15;;;19.70;99.90;;;;;;5115544;28;20158;-79
2022/10/17 07:42:22;;;;;;;6.68;3.65;;;20.60;99.90;;;;;;5097217;28;20034;-79
2022/10/17 07:44:48;;;;;;;6.60;3.85;;;22.70;99.90;;;;;;5115416;28;20476;-80
2022/10/17 07:47:13;;;;;;;5.97;3.72;;;24.40;99.90;;;;;;5115435;28;20098;-79
2022/10/17 07:49:41;;;;;;;5.07;3.70;;;25.10;99.90;;;;;;5114941;28;20057;-79
2022/10/17 07:52:12;;;;;;;4.95;3.42;;;27.90;99.90;;;;;;5115615;28;20035;-80
2022/10/17 07:54:38;;;;;;;4.88;3.20;;;29.30;99.90;;;;;;5115413;28;20027;-80
2022/10/17 07:57:03;;;;;;;5.07;3.55;;;29.20;99.90;;;;;;5115010;28;20489;-80
2022/10/17 07:59:29;;;;;;;7.07;3.50;;;30.90;99.90;;;;;;5115711;28;20027;-80
2022/10/17 08:01:55;;;;;;;3.88;3.30;;;30.10;99.90;;;;;;5114988;28;20042;-80
2022/10/17 08:04:22;;;;;;;4.80;3.35;;;32.00;99.90;;;;;;5097497;28;20024;-80
2022/10/17 08:06:48;;;;;;;4.22;3.05;;;28.40;99.90;;;;;;5094802;28;20028;-80
2022/10/17 08:09:13;;;;;;;4.32;3.08;;;27.90;99.90;;;;;;5094627;28;20028;-80
2022/10/17 08:11:39;;;;;;;3.65;3.10;;;29.20;99.90;;;;;;5094830;28;20499;-80
2022/10/17 08:14:05;;;;;;;4.38;3.22;;;29.30;99.90;;;;;;5094797;28;20054;-80
2022/10/17 08:16:31;;;;;;;3.55;3.03;;;31.10;99.90;;;;;;5094608;28;20028;-80
2022/10/17 08:18:57;;;;;;;5.93;2.97;;;32.00;99.90;;;;;;5094295;28;20039;-80
2022/10/17 08:21:22;;;;;;;3.47;2.92;;;32.40;99.90;;;;;;5094270;28;20097;-80
2022/10/17 08:23:48;;;;;;;3.75;3.08;;;32.00;99.90;;;;;;5094303;28;20107;-80
2022/10/17 08:26:18;;;;;;;4.35;2.97;;;31.10;99.90;;;;;;5106332;28;20054;-80
2022/10/17 08:28:45;;;;;;;4.75;2.95;;;27.20;99.90;;;;;;5112818;28;20027;-80
2022/10/17 08:31:13;;;;;;;4.25;2.92;;;27.10;99.90;;;;;;5114378;28;20384;-79
2022/10/17 08:33:40;;;;;;;5.50;3.13;;;29.60;99.90;;;;;;5110744;28;20086;-80
2022/10/17 08:36:07;;;;;;;4.85;3.00;;;30.90;99.90;;;;;;5105316;28;20483;-80
2022/10/17 08:38:34;;;;;;;4.88;3.03;;;28.60;99.90;;;;;;5102291;28;20049;-81
2022/10/17 08:41:03;;;;;;;3.95;2.50;;;27.80;99.90;;;;;;5113579;28;20028;-81
2022/10/17 08:43:53;;;;;;;4.20;3.03;;;30.80;99.90;;;;;;5113860;28;20039;-81
2022/10/17 08:46:19;;;;;;;3.13;2.83;;;29.70;99.90;;;;;;5093553;28;20024;-81
2022/10/17 08:48:47;;;;;;;4.50;2.97;;;29.40;99.90;;;;;;5099320;28;20027;-80
2022/10/17 08:51:26;;;;;;;4.47;3.10;;;29.10;99.90;;;;;;5114032;28;20523;-78
2022/10/17 08:54:15;;;;;;;5.45;2.97;;;26.40;99.90;;;;;;5108828;28;20488;-79
2022/10/17 08:56:48;;;;;;;3.47;3.10;;;26.20;99.90;;;;;;5113174;28;20088;-79
2022/10/17 08:59:27;;;;;;;5.70;2.97;;;27.80;99.90;;;;;;5113843;28;20034;-79
2022/10/17 09:02:34;;;;;;;4.18;3.10;;;29.30;99.90;;;;;;5113870;28;20395;-79
2022/10/17 09:05:24;;;;;;;4.25;3.15;;;29.80;99.90;;;;;;5102154;28;20038;-80
2022/10/17 09:08:19;;;;;;;3.78;3.08;;;34.30;99.90;;;;;;5108709;28;20031;-80
2022/10/17 09:11:04;;;;;;;5.15;2.90;;;35.10;99.90;;;;;;5104622;28;20043;-80
2022/10/17 09:13:36;;;;;;;3.30;3.00;;;35.50;99.90;;;;;;5113541;28;20130;-80
2022/10/17 09:16:26;;;;;;;2.88;2.67;;;36.70;99.90;;;;;;5112424;28;20063;-79
2022/10/17 09:19:15;;;;;;;3.20;2.78;;;36.40;99.90;;;;;;5113395;28;20106;-80
2022/10/17 09:21:58;;;;;;;4.05;2.80;;;35.10;99.90;;;;;;5108451;28;20534;-79
2022/10/17 09:24:42;;;;;;;4.10;2.80;;;34.70;99.90;;;;;;5112951;28;20028;-80
2022/10/17 09:27:34;;;;;;;3.55;2.88;;;35.60;99.90;;;;;;5112929;28;20035;-79
2022/10/17 09:30:19;;;;;;;6.82;2.92;;;38.90;99.90;;;;;;5112674;28;20031;-80
2022/10/17 09:32:46;;;;;;;3.13;2.83;;;37.50;99.90;;;;;;5113204;28;20044;-80
2022/10/17 09:35:13;;;;;;;5.68;2.95;;;35.80;99.90;;;;;;5112975;28;20024;-79
2022/10/17 09:37:40;;;;;;;3.33;2.85;;;35.80;99.90;;;;;;5113155;28;20464;-79
2022/10/17 09:40:11;;;;;;;3.00;2.67;;;37.60;99.90;;;;;;5113004;28;20023;-79
2022/10/17 09:42:38;;;;;;;4.10;2.92;;;36.10;99.90;;;;;;5112934;28;20361;-79
2022/10/17 09:45:09;;;;;;;4.18;3.00;;;35.80;99.90;;;;;;5112384;28;20050;-80
2022/10/17 09:47:58;;;;;;;3.33;2.53;;;35.90;99.90;;;;;;5113073;28;20020;-80
2022/10/17 09:50:31;;;;;;;3.65;2.53;;;35.10;99.90;;;;;;5098725;28;20096;-79
2022/10/17 09:53:07;;;;;;;5.18;3.20;;;35.70;99.90;;;;;;5109651;28;20043;-79
2022/10/17 09:55:40;;;;;;;3.72;2.70;;;37.90;99.90;;;;;;5103175;28;20032;-79
2022/10/17 09:58:07;;;;;;;3.58;2.83;;;37.40;99.90;;;;;;5097251;28;20093;-80
2022/10/17 10:00:36;;;;;;;4.47;2.70;;;37.70;99.90;;;;;;5112488;28;20019;-80
2022/10/17 10:03:25;;;;;;;2.70;2.50;;;38.70;99.90;;;;;;5111926;28;20043;-80
2022/10/17 10:05:58;;;;;;;3.72;2.63;;;39.50;99.90;;;;;;5112127;28;20484;-80
2022/10/17 10:08:34;;;;;;;3.25;2.58;;;40.80;99.90;;;;;;5112740;28;20035;-80
2022/10/17 10:11:05;;;;;;;2.75;2.53;;;39.90;99.90;;;;;;5107358;28;20032;-81
2022/10/17 10:13:32;;;;;;;3.05;2.70;;;37.70;99.90;;;;;;5112010;28;20089;-80
2022/10/17 10:16:15;;;;;;;4.15;2.50;;;38.30;99.90;;;;;;5112447;28;20051;-79
2022/10/17 10:18:42;;;;;;;4.35;2.60;;;36.10;99.90;;;;;;5092350;28;20024;-80
2022/10/17 10:21:07;;;;;;;3.38;2.50;;;36.40;99.90;;;;;;5106584;28;20384;-79
2022/10/17 10:23:38;;;;;;;3.45;2.80;;;35.20;99.90;;;;;;5112309;28;20039;-79
2022/10/17 10:26:34;;;;;;;4.35;3.03;;;34.20;99.90;;;;;;5112566;28;20027;-79
2022/10/17 10:29:04;;;;;;;3.25;2.75;;;35.20;99.90;;;;;;5091625;28;20027;-80
2022/10/17 10:31:36;;;;;;;3.25;2.50;;;37.40;99.90;;;;;;5112028;28;20039;-80
2022/10/17 10:34:19;;;;;;;3.63;2.45;;;37.70;99.90;;;;;;5112496;28;20020;-80
2022/10/17 10:36:47;;;;;;;3.20;2.70;;;38.90;99.90;;;;;;5112187;28;20031;-79
2022/10/17 10:39:23;;;;;;;4.13;2.70;;;36.30;99.90;;;;;;5112075;28;20315;-79
2022/10/17 10:41:49;;;;;;;2.75;2.40;;;36.20;99.90;;;;;;5111768;28;20027;-82
2022/10/17 10:44:17;;;;;;;4.80;2.55;;;37.50;99.90;;;;;;5111845;28;20024;-80
2022/10/17 10:46:43;;;;;;;3.00;2.58;;;38.00;99.90;;;;;;5112255;28;20387;-79
2022/10/17 10:49:29;;;;;;;3.65;2.40;;;40.30;99.90;;;;;;5112223;28;20024;-88
2022/10/17 10:52:00;;;;;;;4.22;2.53;;;41.30;99.90;;;;;;5111956;28;20042;-82
2022/10/17 10:54:36;;;;;;;2.90;2.50;;;43.20;99.90;;;;;;5111996;28;20020;-81
2022/10/17 10:57:06;;;;;;;4.63;2.58;;;41.60;99.90;;;;;;5112193;28;20081;-81
2022/10/17 10:59:36;;;;;;;2.72;2.53;;;40.50;99.90;;;;;;5112010;28;20032;-83
2022/10/17 11:02:51;;;;;;;3.38;2.58;;;37.60;99.90;;;;;;5111580;28;20441;-81
2022/10/17 11:05:25;;;;;;;3.00;2.53;;;38.40;99.90;;;;;;4993520;28;20101;-81
2022/10/17 11:08:04;;;;;;;2.58;2.28;;;38.30;99.90;;;;;;4994011;28;20061;-81
2022/10/17 11:11:12;;;;;;;3.17;2.45;;;37.40;99.90;;;;;;4993761;28;20054;-81
2022/10/17 11:13:50;;;;;;;4.00;2.42;;;39.00;99.90;;;;;;4994235;28;20046;-80
2022/10/17 11:16:58;;;;;;;5.30;2.45;;;38.80;99.90;;;;;;4993888;28;20089;-81
2022/10/17 11:19:42;;;;;;;4.18;2.83;;;40.40;99.90;;;;;;4993698;28;20033;-81
2022/10/17 11:22:20;;;;;;;4.43;2.22;;;38.90;99.90;;;;;;4993609;28;20030;-80
2022/10/17 11:24:58;;;;;;;3.75;2.38;;;41.20;99.90;;;;;;4993912;28;20101;-80
2022/10/17 11:27:24;;;;;;;2.42;2.22;;;40.80;99.90;;;;;;4993890;28;20120;-81
2022/10/17 11:29:50;;;;;;;4.72;2.40;;;42.20;99.90;;;;;;4993522;28;20046;-81
2022/10/17 11:32:19;;;;;;;5.40;2.70;;;43.20;99.90;;;;;;4993248;28;20109;-81
2022/10/17 11:34:53;;;;;;;3.05;2.50;;;43.80;99.90;;;;;;4993490;28;20096;-80
2022/10/17 11:37:27;;;;;;;2.65;2.42;;;42.00;99.90;;;;;;5095206;28;20020;-81
2022/10/17 11:39:59;;;;;;;5.65;2.40;;;39.40;99.90;;;;;;5095152;28;20407;-81
2022/10/17 11:42:38;;;;;;;3.78;2.30;;;40.10;99.90;;;;;;5094755;28;20020;-81
2022/10/17 11:45:16;;;;;;;2.97;2.17;;;38.60;99.90;;;;;;5094924;28;20034;-81
2022/10/17 11:47:53;;;;;;;2.40;2.20;;;38.60;99.90;;;;;;5095041;28;20024;-80
2022/10/17 11:50:34;;;;;;;7.05;2.67;;;38.00;99.90;;;;;;5094947;28;20028;-81
2022/10/17 11:53:07;;;;;;;3.25;2.90;;;38.20;99.90;;;;;;5076558;28;20036;-81
2022/10/17 11:55:33;;;;;;;3.97;2.80;;;37.60;99.90;;;;;;5094608;28;20031;-80
2022/10/17 11:58:05;;;;;;;2.72;2.40;;;37.90;99.90;;;;;;5094861;28;20016;-81
2022/10/17 12:01:11;;;;;;;3.10;2.30;;;37.90;99.90;;;;;;5094713;28;20103;-81
2022/10/17 12:04:00;;;;;;;2.53;2.25;;;37.30;99.90;;;;;;5094372;28;20028;-80
2022/10/17 12:07:13;;;;;;;3.80;2.50;;;37.30;99.90;;;;;;5094711;28;20024;-80
2022/10/17 12:09:56;;;;;;;4.32;2.42;;;33.90;99.90;;;;;;5011954;28;20096;-80
2022/10/17 12:12:27;;;;;;;3.90;2.60;;;33.30;99.90;;;;;;5012187;28;20052;-80
2022/10/17 12:14:53;;;;;;;3.50;2.50;;;36.40;99.90;;;;;;5012218;28;20128;-80
2022/10/17 12:17:32;;;;;;;2.45;2.22;;;38.30;99.90;;;;;;5012290;28;20515;-80
2022/10/17 12:20:19;;;;;;;4.55;2.30;;;39.10;99.90;;;;;;5012384;28;20034;-80
2022/10/17 12:22:50;;;;;;;2.80;2.15;;;36.50;99.90;;;;;;5012565;28;20026;-80
2022/10/17 12:25:31;;;;;;;4.22;2.72;;;33.80;99.90;;;;;;5011865;28;20531;-80
2022/10/17 12:28:05;;;;;;;2.65;2.30;;;34.10;99.90;;;;;;5012238;28;20102;-80
2022/10/17 12:30:31;;;;;;;3.60;2.20;;;32.90;99.90;;;;;;5012247;28;20145;-80
2022/10/17 12:33:10;;;;;;;4.47;2.50;;;33.60;99.90;;;;;;5031284;28;20042;-80
2022/10/17 12:35:37;;;;;;;2.42;2.17;;;31.90;99.90;;;;;;5031774;28;20030;-80
2022/10/17 12:38:16;;;;;;;4.43;2.40;;;30.10;99.90;;;;;;5031795;28;20592;-80
2022/10/17 12:40:42;;;;;;;2.67;2.30;;;29.00;99.90;;;;;;5031750;28;20045;-80
2022/10/17 12:43:14;;;;;;;2.92;2.60;;;29.10;99.90;;;;;;5031599;28;20029;-80
2022/10/17 12:45:46;;;;;;;5.10;2.80;;;30.60;99.90;;;;;;5079745;28;20028;-80
2022/10/17 12:48:31;;;;;;;3.08;2.55;;;30.80;99.90;;;;;;5094386;28;20426;-80
2022/10/17 12:51:06;;;;;;;2.58;2.38;;;29.90;99.90;;;;;;5094222;28;20039;-80
2022/10/17 12:53:53;;;;;;;2.65;2.42;;;29.90;99.90;;;;;;5093622;28;20040;-80
2022/10/17 12:56:37;;;;;;;5.95;3.00;;;28.90;99.90;;;;;;5093794;28;20028;-79
2022/10/17 12:59:11;;;;;;;3.58;2.80;;;29.00;99.90;;;;;;5093679;28;20074;-80
2022/10/17 13:01:42;;;;;;;4.80;3.10;;;28.50;99.90;;;;;;5093679;28;20503;-80
2022/10/17 13:04:09;;;;;;;5.70;2.85;;;28.40;99.90;;;;;;5093502;28;20089;-80
2022/10/17 13:06:39;;;;;;;3.17;2.72;;;28.50;99.90;;;;;;5093556;28;20032;-80
2022/10/17 13:09:44;;;;;;;5.82;2.72;;;28.60;99.90;;;;;;5093082;28;20020;-80
2022/10/17 13:12:24;;;;;;;4.78;2.70;;;30.20;99.90;;;;;;4991534;28;20137;-80